Portada
METAR-TAF:

METAR-TAF

Aeroports :

Curaçao, Antilles Neerlandeses

latitud: 12-12N, longitud: 068-58W, altitud: 9 m

Observació

L'informe es va fer fa 31 minuts, a les 05:00 UTC
Vent 6 kt del Est
Temperatura 29°C
Humitat 74%
Pressió 1012 hPa
Visibilitat 10 km o més
Núvols disperses a una alçada de 2100 ft

METAR: TNCC 210500Z 09006KT 9999 SCT021 29/24 Q1012 NOSIG

Hora: 01:31 (05:31 UTC)

Pronòstic

L'informe es va fer fa 16 minuts, a les 05:15 UTC
Pronòstic vàlid del 21 a les 06 UTC al 22 a les 06 UTC
Vent 8 kt del Est
Visibilitat 10 km o més
Núvols disperses a una alçada de 1800 ft
Probabilitat 30% :
Temporalment
l' 21 a les 02 UTC al 21 a les 12 UTC
Vent 10 kt amb direcció variable amb ràfegues de 21 kt
Visibilitat: 5000 m
Escasses núvols a una alçada de 1200 ft, Cumulonimbus.
Cel ennuvolat a una alçada de 1400 ft
tempesta, pluja

TAF: TNCC 210515Z 2106/2206 10008KT 9999 SCT018 PROB30 TEMPO 2102/2112 VRB10G21KT 5000 TSRA FEW012CB BKN014

Observacions i pronòstics meteorològics de més de 4000 aeroports (METAR i TAF).

Les estacions disponibles són els punts grocs i vermells al mapa.

Posi el ratolí al punt desitjat per veure el nom de l'estació.

Feu clic per veure les observacions i els pronòstics meteorològics.

Per canviar el mapa: feu clic els botons verds amb una creu de color negre per apropar; al botó verd amb un guió per allunyar la imatge; o en les fletxes verdes per a mapes adjacents.


METAR-TAF: